Latest Coastal Weather Observations for Wynyard

IDV60701

Issued at 8:31 am EST Monday 3 August 2015 (issued every 10 minutes, with the page automatically refreshed every 10 minutes)

About coastal observations | Map of coastal stations | Coastal observations for VIC | Marine services | Other Formats
Station Details ID: 091107 Name: WYNYARD AIRPORT Lat: -41.00 Lon: 145.73 Height: 12.0 m
Data from the previous 72 hours. | See also: Recent months at Wynyard
Date/Time
EST
Temp

°C
Wind Pressure Rain
since 9am
mm
Weather Cloud Vis
km
Sea
Height
m
Swell
Dir
 
Speed
knots
Gust
knots
hPa Trend Height
m
Period
s
Dir
03/08:30am 3.1 WSW 15 20 1008.0 - 11.8 - Partly cloudy 10 - - - -
03/08:22am 2.8 WSW 19 29 1007.6 - 11.8 - Partly cloudy 10 - - - -
03/08:12am 2.9 WSW 16 27 1007.3 - 11.8 - Partly cloudy 10 - - - -
03/08:00am 2.6 WSW 11 15 1007.0 - 11.8 - Partly cloudy 10 - - - -
03/07:55am 2.3 SW 12 17 1006.7 - 11.8 - Partly cloudy 10 - - - -
03/07:45am 2.2 SW 14 20 1006.4 - 11.8 - Partly cloudy 9 - - - -
03/07:30am 2.4 WSW 13 17 1006.2 - 11.4 - Partly cloudy 10 - - - -
03/07:22am 2.5 SW 15 23 1005.7 - 11.4 - Partly cloudy 10 - - - -
03/07:00am 1.9 WSW 9 12 1005.4 - 11.4 - Partly cloudy 10 - - - -
03/06:30am 2.1 SW 10 13 1004.8 - 11.4 - Partly cloudy 10 - - - -
03/06:25am 2.0 SW 12 16 1004.4 - 11.4 - Partly cloudy 10 - - - -
03/06:13am 2.3 SW 11 17 1004.3 - 11.4 - Partly cloudy 5 - - - -
03/06:00am 2.6 SW 12 16 1003.9 - 11.0 - Mostly cloudy 10 - - - -
03/05:31am 2.2 WSW 12 16 1002.8 - 11.0 - Partly cloudy 10 - - - -
03/05:30am 2.2 WSW 12 16 1002.8 - 11.0 - Partly cloudy 10 - - - -
03/05:19am 2.5 WSW 12 17 1002.9 - 11.0 - Partly cloudy 8 - - - -
03/05:00am 2.6 WSW 13 18 1002.8 - 11.0 - Partly cloudy 10 - - - -
03/04:30am 3.2 W 13 17 1001.9 - 10.8 - Partly cloudy 10 - - - -
03/04:00am 3.1 WSW 11 18 1001.3 - 10.8 - Partly cloudy 10 - - - -
03/03:30am 3.3 W 10 14 1000.9 - 10.8 - Partly cloudy 10 - - - -
03/03:14am 3.3 WSW 11 18 1000.8 - 10.6 - Partly cloudy 10 - - - -
03/03:03am 3.5 WSW 15 31 1001.3 - 10.6 - Partly cloudy 5 - - - -
03/03:00am 3.5 WSW 14 31 1001.2 - 10.6 Rain Cloudy 5 - - - -
03/02:30am 3.3 W 13 17 1000.3 - 10.0 - Partly cloudy 10 - - - -
03/02:00am 3.7 WSW 14 20 1001.1 - 10.0 - Partly cloudy 10 - - - -
03/01:30am 3.1 W 12 16 1000.2 - 10.0 - Partly cloudy 10 - - - -
03/01:27am 3.1 W 13 16 1000.3 - 10.0 - Partly cloudy 10 - - - -
03/01:20am 3.3 WSW 13 18 1000.2 - 10.0 - Partly cloudy 10 - - - -
03/01:11am 3.5 W 16 26 1000.2 - 9.8 - Partly cloudy 6 - - - -
03/01:04am 3.7 WSW 18 26 1000.5 - 9.8 - Partly cloudy 4 - - - -
03/01:01am 3.9 WSW 17 26 1000.8 - 9.4 - Partly cloudy 5 - - - -
03/01:00am 3.9 WSW 16 25 1000.9 - 9.4 - Partly cloudy 6 - - - -
03/12:30am 4.4 WSW 17 26 999.7 - 8.6 - Partly cloudy 10 - - - -
03/12:07am 4.9 WSW 15 27 999.9 - 8.6 - Partly cloudy 10 - - - -
03/12:00am 4.8 WSW 13 17 999.9 - 8.4 Recent precip. Cloudy 10 - - - -
 
Date/Time
EST
Temp

°C
Wind Pressure Rain
since 9am
mm
Weather Cloud Vis
km
Sea
Height
m
Swell
Dir
 
Speed
knots
Gust
knots
hPa Trend Height
m
Period
s
Dir
02/11:30pm 4.7 W 14 21 999.6 - 8.0 - Partly cloudy 10 - - - -
02/11:18pm 4.6 W 14 23 999.4 - 8.0 - Partly cloudy 10 - - - -
02/11:03pm 4.9 WSW 15 32 999.9 - 7.6 - Partly cloudy 4 - - - -
02/11:00pm 4.9 SW 12 19 1000.2 - 7.4 - Partly cloudy 5 - - - -
02/10:33pm 5.1 W 11 18 999.6 - 6.8 - Partly cloudy 10 - - - -
02/10:30pm 5.1 W 12 20 999.7 - 6.8 - Partly cloudy 10 - - - -
02/10:09pm 5.5 WSW 18 30 1000.2 - 6.0 - Partly cloudy 5 - - - -
02/10:00pm 5.8 W 14 18 1000.0 - 5.4 - Partly cloudy 10 - - - -
02/09:30pm 5.7 W 21 31 1000.4 - 5.4 - Partly cloudy 9 - - - -
02/09:29pm 5.7 W 21 31 1000.4 - 5.4 - Partly cloudy 9 - - - -
02/09:20pm 5.6 WNW 13 26 1000.4 - 5.4 - Partly cloudy 10 - - - -
02/09:00pm 5.0 W 11 13 1000.6 - 5.4 Recent precip. Cloudy 10 - - - -
02/08:37pm 5.1 WSW 15 19 1000.9 - 5.4 - Partly cloudy 10 - - - -
02/08:30pm 5.2 WSW 18 25 1001.1 - 5.4 - Partly cloudy 9 - - - -
02/08:25pm 5.5 W 24 34 1001.3 - 5.4 - Partly cloudy 4 - - - -
02/08:17pm 5.6 W 14 34 1001.0 - 5.2 - Partly cloudy 4 - - - -
02/08:14pm 5.5 W 7 27 1001.2 - 4.8 - Partly cloudy 10 - - - -
02/08:00pm 4.1 SW 4 5 1001.0 - 4.6 - Partly cloudy 10 - - - -
02/07:30pm 4.3 W 7 11 1001.1 - 4.6 - Partly cloudy 10 - - - -
02/07:00pm 4.9 WNW 9 13 1001.4 - 4.6 - Partly cloudy 10 - - - -
02/06:30pm 5.3 WNW 11 14 1001.8 - 4.6 - Partly cloudy 10 - - - -
02/06:00pm 5.3 W 14 19 1001.4 - 4.6 - - 10 - - - -
02/05:30pm 5.5 W 13 19 1000.9 - 4.6 - Partly cloudy 10 - - - -
02/05:00pm 6.1 W 12 21 1001.4 - 4.6 - Partly cloudy 10 - - - -
02/04:30pm 6.4 WSW 11 14 1001.2 - 4.4 - Partly cloudy 10 - - - -
02/04:00pm 6.3 WSW 14 21 1000.7 - 4.4 - Partly cloudy 10 - - - -
02/03:48pm 5.9 WSW 15 22 1001.1 - 4.4 - Partly cloudy 9 - - - -
02/03:30pm 6.2 WSW 19 27 1001.2 - 4.0 - Partly cloudy 5 - - - -
02/03:28pm 6.4 WSW 19 27 1001.1 - 4.0 - Partly cloudy 5 - - - -
02/03:00pm 8.2 W 14 20 1000.3 - 3.8 - Partly cloudy 10 - - - -
02/02:30pm 7.3 WSW 14 21 1000.2 - 3.8 - Partly cloudy 10 - - - -
02/02:00pm 6.8 WSW 17 25 1000.3 - 3.8 - Partly cloudy 10 - - - -
02/01:33pm 6.3 SW 26 36 1000.0 - 3.8 - Partly cloudy 10 - - - -
02/01:30pm 6.3 SW 26 36 1000.1 - 3.8 - Partly cloudy 10 - - - -
02/01:16pm 6.8 WSW 18 28 999.9 - 3.8 - Partly cloudy 10 - - - -
02/01:10pm 7.0 WSW 20 26 1000.0 - 3.8 - Partly cloudy 10 - - - -
02/01:00pm 7.0 WSW 24 38 999.8 - 3.8 - Partly cloudy 5 - - - -
02/12:58pm 7.1 W 25 38 999.9 - 3.8 - Partly cloudy 5 - - - -
02/12:45pm 7.8 W 33 51 999.1 - 3.4 - Partly cloudy 2 - - - -
02/12:36pm 9.5 WNW 24 43 998.7 - 2.4 - Partly cloudy 5 - - - -
02/12:30pm 10.5 WNW 21 36 998.4 - 1.6 - Partly cloudy 10 - - - -
02/12:00pm 10.6 WNW 21 34 999.6 - 1.6 Rain Cloudy 7 - - - -
02/11:40am 9.6 WNW 18 29 1000.4 - 1.4 - Partly cloudy 10 - - - -
02/11:31am 8.8 WNW 19 29 1000.8 - 1.4 - Partly cloudy 6 - - - -
02/11:30am 8.8 WNW 18 27 1000.9 - 1.4 - Partly cloudy 5 - - - -
02/11:11am 9.5 WNW 21 31 1001.5 - 0.8 - Partly cloudy 5 - - - -
02/11:02am 10.3 WNW 19 31 1001.7 - 0.6 - Partly cloudy 10 - - - -
02/11:00am 10.6 WNW 18 24 1001.8 - 0.6 - Partly cloudy 10 - - - -
02/10:46am 10.7 WNW 19 27 1002.0 - 0.6 - Partly cloudy 10 - - - -
02/10:41am 10.1 WNW 16 27 1002.2 - 0.6 - Partly cloudy 10 - - - -
02/10:31am 9.7 WNW 14 21 1002.7 - 0.6 - Partly cloudy 5 - - - -
02/10:30am 9.7 WNW 14 21 1002.7 - 0.6 - Partly cloudy 6 - - - -
02/10:00am 9.9 WNW 13 17 1003.2 - 0.2 - Partly cloudy 10 - - - -
02/09:30am 9.4 WNW 12 18 1003.9 - 0.2 - Partly cloudy 10 - - - -
02/09:00am 8.9 WNW 11 15 1004.6 - 1.4 - Partly cloudy 10 - - - -
02/08:30am 7.5 W 11 15 1004.9 - 1.4 - Partly cloudy 10 - - - -
02/08:00am 6.5 SW 6 8 1005.2 - 1.4 - Partly cloudy 10 - - - -
02/07:30am 5.8 W 5 6 1005.5 - 1.4 - Partly cloudy 10 - - - -
02/07:00am 6.2 WSW 8 9 1005.8 - 1.4 - Partly cloudy 10 - - - -
02/06:30am 6.7 W 8 12 1006.0 - 1.4 - Partly cloudy 10 - - - -
02/06:00am 6.7 W 10 14 1006.4 - 1.2 Recent precip. Cloudy 7 - - - -
02/05:30am 6.7 WNW 9 13 1006.5 - 1.2 - Partly cloudy 10 - - - -
02/05:00am 6.3 WNW 9 11 1006.8 - 1.0 - Partly cloudy 10 - - - -
02/04:30am 6.3 WNW 10 12 1007.2 - 1.0 - Partly cloudy 10 - - - -
02/04:00am 6.8 WNW 12 15 1007.6 - 1.0 - Partly cloudy 10 - - - -
02/03:30am 6.8 W 12 17 1008.0 - 0.8 - Partly cloudy 10 - - - -
02/03:00am 6.0 W 9 12 1008.5 - 0.8 - Mostly cloudy 10 - - - -
02/02:30am 4.5 W 6 7 1009.2 - 0.8 - Partly cloudy 10 - - - -
02/02:00am 5.2 WNW 6 8 1009.2 - 0.8 - - 10 - - - -
02/01:30am 5.1 W 11 17 1009.5 - 0.8 - Partly cloudy 10 - - - -
02/01:00am 2.4 SSE 1 6 1009.9 - 0.8 - Partly cloudy 10 - - - -
02/12:30am 2.2 SSE 3 5 1010.2 - 0.8 - - 10 - - - -
02/12:00am 3.1 ENE 1 4 1010.4 - 0.8 - Partly cloudy 9 - - - -
 
Date/Time
EST
Temp

°C
Wind Pressure Rain
since 9am
mm
Weather Cloud Vis
km
Sea
Height
m
Swell
Dir
 
Speed
knots
Gust
knots
hPa Trend Height
m
Period
s
Dir
01/11:30pm 3.3 CALM 0 0 1010.9 - 0.8 - Partly cloudy 10 - - - -
01/11:00pm 4.4 SSW 5 7 1011.1 - 0.8 - Partly cloudy 10 - - - -
01/10:30pm 2.4 SW 2 4 1011.5 - 0.8 - Partly cloudy 10 - - - -
01/10:00pm 2.9 WSW 3 4 1011.7 - 0.8 - Partly cloudy 10 - - - -
01/09:30pm 4.0 SSW 4 5 1011.5 - 0.8 - - 10 - - - -
01/09:00pm 4.0 WSW 5 8 1011.4 - 0.8 Recent precip. Cloudy 10 - - - -
01/08:30pm 2.8 WSW 4 6 1011.8 - 0.6 - Partly cloudy 10 - - - -
01/08:00pm 2.9 SW 5 7 1011.7 - 0.6 - Partly cloudy 10 - - - -
01/07:30pm 2.3 SSW 4 5 1011.7 - 0.6 - - 10 - - - -
01/07:00pm 3.2 SW 4 5 1011.4 - 0.6 - - 10 - - - -
01/06:30pm 3.4 SSW 4 8 1011.3 - 0.6 - - 10 - - - -
01/06:00pm 4.8 S 3 4 1010.9 - 0.6 - - 10 - - - -
01/05:30pm 5.8 WNW 1 5 1010.5 - 0.6 - - 10 - - - -
01/05:00pm 6.4 W 5 8 1010.2 - 0.6 - Partly cloudy 10 - - - -
01/04:30pm 6.8 WSW 6 8 1009.8 - 0.6 - Partly cloudy 10 - - - -
01/04:00pm 8.0 WSW 13 19 1009.9 - 0.6 - Partly cloudy 9 - - - -
01/03:30pm 8.7 WSW 11 16 1009.2 - 0.6 - - 10 - - - -
01/03:00pm 8.2 WSW 18 23 1008.9 - 0.6 - Cloudy 10 - - - -
01/02:37pm 7.6 WSW 19 36 1009.1 - 0.6 - Partly cloudy 10 - - - -
01/02:35pm 8.2 W 17 36 1008.8 - 0.6 - Partly cloudy 10 - - - -
01/02:34pm 9.4 W 15 25 1008.7 - 0.6 - Partly cloudy 10 - - - -
01/02:30pm 10.4 W 14 20 1008.4 - 0.6 - Partly cloudy 10 - - - -
01/02:00pm 9.8 W 12 16 1008.2 - 0.6 - Partly cloudy 10 - - - -
01/01:30pm 8.8 WSW 13 17 1008.7 - 0.6 - - 10 - - - -
01/01:07pm 7.6 WSW 12 17 1008.8 - 0.6 - Partly cloudy 10 - - - -
01/01:00pm 7.2 WSW 15 22 1008.9 - 0.6 - Partly cloudy 10 - - - -
01/12:48pm 6.9 WSW 24 37 1009.0 - 0.2 - Partly cloudy 5 - - - -
01/12:47pm 7.3 W 24 37 1008.9 - 0.2 - Partly cloudy 6 - - - -
01/12:41pm 9.1 W 19 33 1008.4 - 0.0 - Partly cloudy 10 - - - -
01/12:30pm 9.9 W 15 20 1008.2 - 0.0 - Partly cloudy 10 - - - -
01/12:23pm 10.1 WSW 16 26 1008.2 - 0.0 - Partly cloudy 10 - - - -
01/12:00pm 9.6 W 15 19 1008.1 - 0.0 - Mostly clear 10 - - - -
01/11:30am 9.3 WSW 17 23 1008.2 - 0.0 - - 10 - - - -
01/11:00am 8.6 W 17 28 1008.2 - 0.0 - - 10 - - - -
01/10:59am 8.4 W 16 28 1008.2 - 0.0 - - 10 - - - -
01/10:30am 7.9 W 20 27 1008.0 - 0.0 - Partly cloudy 10 - - - -
01/10:23am 7.8 WSW 15 27 1008.0 - 0.0 - Partly cloudy 10 - - - -
01/10:00am 8.1 WSW 13 17 1007.2 - 0.0 - - 10 - - - -
01/09:30am 7.2 WSW 14 18 1006.7 - 0.0 - Partly cloudy 10 - - - -
01/09:05am 6.4 W 15 25 1006.0 - 0.0 - Partly cloudy 10 - - - -
01/09:00am 7.2 W 12 16 1006.2 - 12.8 - Partly cloudy 10 - - - -
01/08:30am 6.6 W 12 16 1005.3 - 12.8 - Partly cloudy 10 - - - -
01/08:01am 6.3 WSW 15 25 1004.5 - 12.8 - Partly cloudy 10 - - - -
01/08:00am 6.4 WSW 16 25 1004.5 - 12.8 - Partly cloudy 10 - - - -
01/07:30am 7.2 W 15 26 1003.6 - 12.8 - Partly cloudy 10 - - - -
01/07:28am 7.3 W 15 26 1003.4 - 12.8 - Partly cloudy 10 - - - -
01/07:00am 7.3 W 10 19 1003.1 - 12.8 - Partly cloudy 10 - - - -
01/06:30am 7.3 WNW 9 12 1002.3 - 12.8 - Partly cloudy 10 - - - -
01/06:00am 7.3 W 12 15 1002.3 - 12.4 Rain Cloudy 10 - - - -
01/05:30am 7.8 WSW 18 31 1001.8 - 11.6 - Partly cloudy 10 - - - -
01/05:25am 8.0 W 15 27 1001.6 - 11.6 - Partly cloudy 10 - - - -
01/05:10am 8.2 WSW 14 20 1001.2 - 11.4 - Partly cloudy 10 - - - -
01/05:08am 8.2 WSW 15 20 1001.2 - 11.4 - Partly cloudy 10 - - - -
01/05:00am 8.3 WSW 18 26 1001.2 - 11.4 - Partly cloudy 8 - - - -
01/04:50am 8.7 W 18 28 1001.3 - 11.2 - Partly cloudy 3 - - - -
01/04:34am 9.7 NW 19 26 1000.7 - 9.2 - Cloudy 5 - - - -
01/04:30am 9.7 NW 21 32 1000.7 - 9.0 - Cloudy 6 - - - -
01/04:23am 9.7 NW 21 31 1000.8 - 8.8 - Partly cloudy 6 - - - -
01/04:00am 9.5 NW 18 30 1001.4 - 7.6 - Partly cloudy 5 - - - -
01/03:47am 9.5 NW 21 34 1001.8 - 6.6 - Partly cloudy 5 - - - -
01/03:36am 9.5 NW 19 30 1001.9 - 5.8 - Partly cloudy 5 - - - -
01/03:30am 9.7 NW 18 26 1002.1 - 5.6 - Partly cloudy 5 - - - -
01/03:22am 9.7 NW 16 23 1002.0 - 5.4 - Partly cloudy 5 - - - -
01/03:00am 9.4 NW 16 24 1002.9 - 4.6 Recent precip. Cloudy 9 - - - -
01/02:30am 9.4 NW 17 25 1003.8 - 4.2 - Partly cloudy 7 - - - -
01/02:00am 9.3 NW 14 20 1004.6 - 3.2 - Partly cloudy 6 - - - -
01/01:30am 9.2 NW 19 27 1005.3 - 2.0 - Partly cloudy 6 - - - -
01/01:00am 9.8 NW 18 29 1005.7 - 0.4 - Partly cloudy 10 - - - -
01/12:51am 10.4 NNW 18 29 1005.7 - 0.4 - Partly cloudy 10 - - - -
01/12:30am 10.4 NNW 16 24 1006.3 - 0.4 - Partly cloudy 10 - - - -
01/12:05am 10.5 NW 18 29 1007.4 - 0.4 - Cloudy 10 - - - -
01/12:00am 10.4 NW 17 25 1007.6 - 0.4 - Cloudy 10 - - - -
 
Date/Time
EST
Temp

°C
Wind Pressure Rain
since 9am
mm
Weather Cloud Vis
km
Sea
Height
m
Swell
Dir
 
Speed
knots
Gust
knots
hPa Trend Height
m
Period
s
Dir
31/11:42pm 10.2 NW 15 25 1008.2 - 0.4 - Partly cloudy 10 - - - -
31/11:30pm 10.1 NW 15 23 1008.6 - 0.4 - Partly cloudy 10 - - - -
31/11:00pm 9.9 NW 15 21 1008.9 - 0.4 - Partly cloudy 10 - - - -
31/10:30pm 9.7 NW 14 20 1010.1 - 0.4 - Partly cloudy 10 - - - -
31/10:00pm 9.6 NW 17 25 1010.1 - 0.4 - Partly cloudy 10 - - - -
31/09:30pm 9.7 NW 18 25 1010.4 - 0.4 - Partly cloudy 10 - - - -
31/09:00pm 9.7 NW 15 22 1011.1 - 0.4 - Cloudy 10 - - - -
31/08:40pm 9.6 NW 15 25 1011.2 - 0.4 - Partly cloudy 10 - - - -
31/08:30pm 9.5 NW 13 21 1011.2 - 0.4 - Partly cloudy 10 - - - -
31/08:00pm 8.1 W 5 9 1011.7 - 0.4 - Partly cloudy 10 - - - -
31/07:30pm 8.1 W 5 7 1012.0 - 0.2 - Partly cloudy 10 - - - -
31/07:00pm 8.1 WNW 8 11 1012.4 - 0.2 - Partly cloudy 10 - - - -
31/06:30pm 7.2 W 4 6 1012.4 - 0.2 - Partly cloudy 10 - - - -
31/06:00pm 6.9 W 6 8 1012.8 - 0.2 - Cloudy 10 - - - -
31/05:30pm 7.0 W 6 7 1012.7 - 0.2 - Partly cloudy 10 - - - -
31/05:00pm 8.3 WNW 7 9 1012.9 - 0.2 - - 10 - - - -
31/04:30pm 8.5 WNW 10 15 1012.6 - 0.2 - Partly cloudy 10 - - - -
31/04:00pm 9.1 NW 13 17 1013.3 - 0.0 - Partly cloudy 10 - - - -
31/03:30pm 9.9 NW 10 15 1013.4 - 0.0 - Partly cloudy 10 - - - -
31/03:00pm 10.1 WNW 11 16 1013.7 - 0.0 - Mostly cloudy 10 - - - -
31/02:30pm 11.1 NW 11 15 1014.1 - 0.0 - Partly cloudy 10 - - - -
31/02:00pm 11.0 WNW 12 19 1014.2 - 0.0 - Partly cloudy 10 - - - -
31/01:30pm 10.6 WNW 13 19 1014.7 - 0.0 - Partly cloudy 10 - - - -
31/01:00pm 9.9 WNW 8 11 1015.3 - 0.0 - Partly cloudy 10 - - - -
31/12:30pm 10.1 W 11 19 1015.8 - 0.0 - Partly cloudy 10 - - - -
31/12:00pm 11.1 WNW 11 16 1016.0 - 0.0 - Partly cloudy 10 - - - -
31/11:30am 10.5 WNW 11 14 1016.6 - 0.0 - Partly cloudy 10 - - - -
31/11:00am 10.0 WNW 10 14 1016.8 - 0.0 - Partly cloudy 10 - - - -
31/10:30am 8.9 WNW 7 10 1017.1 - 0.0 - - 10 - - - -
31/10:00am 7.9 W 7 9 1016.9 - 0.0 - Partly cloudy 10 - - - -
31/09:30am 5.8 W 5 7 1016.9 - 0.0 - Partly cloudy 10 - - - -
31/09:00am 4.5 WNW 5 6 1016.6 - 9.8 - - 10 - - - -

Other Formats:

Comma delimited format used in spreadsheet applications
http://www.bom.gov.au/fwo/IDV60701/IDV60701.95957.axf

JavaScript Object Notation format (JSON) in row-major order
http://www.bom.gov.au/fwo/IDV60701/IDV60701.95957.json